sensor_id;sensor_type;location;lat;lon;timestamp;P1;durP1;ratioP1;P2;durP2;ratioP2
11761;SDS011;5938;47.098;15.474;2023-04-01T00:02:28;3.67;;;3.40;;
11761;SDS011;5938;47.098;15.474;2023-04-01T00:06:33;3.63;;;3.27;;
11761;SDS011;5938;47.098;15.474;2023-04-01T00:10:36;5.50;;;2.93;;
11761;SDS011;5938;47.098;15.474;2023-04-01T00:14:39;4.50;;;3.17;;
11761;SDS011;5938;47.098;15.474;2023-04-01T00:18:44;4.37;;;3.67;;
11761;SDS011;5938;47.098;15.474;2023-04-01T00:22:51;4.47;;;3.10;;
11761;SDS011;5938;47.098;15.474;2023-04-01T00:26:54;5.03;;;4.07;;
11761;SDS011;5938;47.098;15.474;2023-04-01T00:30:59;5.53;;;4.20;;
11761;SDS011;5938;47.098;15.474;2023-04-01T00:35:09;5.90;;;3.37;;
11761;SDS011;5938;47.098;15.474;2023-04-01T00:39:13;3.87;;;3.23;;
11761;SDS011;5938;47.098;15.474;2023-04-01T00:43:18;4.40;;;3.47;;
11761;SDS011;5938;47.098;15.474;2023-04-01T00:47:23;4.70;;;3.90;;
11761;SDS011;5938;47.098;15.474;2023-04-01T00:51:29;3.90;;;3.50;;
11761;SDS011;5938;47.098;15.474;2023-04-01T00:55:34;4.17;;;3.60;;
11761;SDS011;5938;47.098;15.474;2023-04-01T00:59:42;3.10;;;2.67;;
11761;SDS011;5938;47.098;15.474;2023-04-01T01:03:47;3.53;;;2.93;;
11761;SDS011;5938;47.098;15.474;2023-04-01T01:07:52;8.43;;;3.40;;
11761;SDS011;5938;47.098;15.474;2023-04-01T01:12:05;6.10;;;3.23;;
11761;SDS011;5938;47.098;15.474;2023-04-01T01:16:15;5.03;;;2.90;;
11761;SDS011;5938;47.098;15.474;2023-04-01T01:24:57;4.90;;;3.13;;
11761;SDS011;5938;47.098;15.474;2023-04-01T01:34:15;4.40;;;3.33;;
11761;SDS011;5938;47.098;15.474;2023-04-01T01:38:26;3.40;;;3.10;;
11761;SDS011;5938;47.098;15.474;2023-04-01T01:42:34;2.53;;;2.33;;
11761;SDS011;5938;47.098;15.474;2023-04-01T01:46:40;3.33;;;2.63;;
11761;SDS011;5938;47.098;15.474;2023-04-01T01:50:45;5.13;;;2.70;;
11761;SDS011;5938;47.098;15.474;2023-04-01T01:54:52;3.23;;;2.87;;
11761;SDS011;5938;47.098;15.474;2023-04-01T01:58:58;3.23;;;2.93;;
11761;SDS011;5938;47.098;15.474;2023-04-01T02:03:04;2.90;;;2.70;;
11761;SDS011;5938;47.098;15.474;2023-04-01T02:07:10;5.50;;;3.67;;
11761;SDS011;5938;47.098;15.474;2023-04-01T02:11:21;4.53;;;3.20;;
11761;SDS011;5938;47.098;15.474;2023-04-01T02:15:29;3.37;;;3.07;;
11761;SDS011;5938;47.098;15.474;2023-04-01T02:19:38;4.17;;;3.37;;
11761;SDS011;5938;47.098;15.474;2023-04-01T02:23:43;4.47;;;3.80;;
11761;SDS011;5938;47.098;15.474;2023-04-01T02:27:51;5.90;;;3.10;;
11761;SDS011;5938;47.098;15.474;2023-04-01T02:31:57;2.90;;;2.60;;
11761;SDS011;5938;47.098;15.474;2023-04-01T02:36:01;4.13;;;3.40;;
11761;SDS011;5938;47.098;15.474;2023-04-01T02:40:05;3.10;;;2.57;;
11761;SDS011;5938;47.098;15.474;2023-04-01T02:44:12;3.00;;;2.80;;
11761;SDS011;5938;47.098;15.474;2023-04-01T02:48:17;4.20;;;3.13;;
11761;SDS011;5938;47.098;15.474;2023-04-01T02:52:22;4.57;;;4.07;;
11761;SDS011;5938;47.098;15.474;2023-04-01T02:56:25;5.90;;;4.47;;
11761;SDS011;5938;47.098;15.474;2023-04-01T03:00:30;3.87;;;3.43;;
11761;SDS011;5938;47.098;15.474;2023-04-01T03:04:34;3.90;;;3.60;;
11761;SDS011;5938;47.098;15.474;2023-04-01T03:08:37;4.47;;;3.50;;
11761;SDS011;5938;47.098;15.474;2023-04-01T03:12:41;5.60;;;3.00;;
11761;SDS011;5938;47.098;15.474;2023-04-01T03:16:46;4.27;;;3.17;;
11761;SDS011;5938;47.098;15.474;2023-04-01T03:20:49;3.17;;;2.87;;
11761;SDS011;5938;47.098;15.474;2023-04-01T03:24:53;3.87;;;3.57;;
11761;SDS011;5938;47.098;15.474;2023-04-01T03:28:56;3.60;;;3.30;;
11761;SDS011;5938;47.098;15.474;2023-04-01T03:33:01;3.73;;;3.43;;
11761;SDS011;5938;47.098;15.474;2023-04-01T03:37:05;5.27;;;4.03;;
11761;SDS011;5938;47.098;15.474;2023-04-01T03:41:11;3.50;;;3.13;;
11761;SDS011;5938;47.098;15.474;2023-04-01T03:45:18;3.40;;;3.10;;
11761;SDS011;5938;47.098;15.474;2023-04-01T03:49:23;4.30;;;3.63;;
11761;SDS011;5938;47.098;15.474;2023-04-01T03:53:26;4.90;;;4.27;;
11761;SDS011;5938;47.098;15.474;2023-04-01T03:57:31;3.40;;;3.10;;
11761;SDS011;5938;47.098;15.474;2023-04-01T04:01:35;3.93;;;3.23;;
11761;SDS011;5938;47.098;15.474;2023-04-01T04:09:50;3.80;;;3.50;;
11761;SDS011;5938;47.098;15.474;2023-04-01T04:13:55;3.73;;;3.47;;
11761;SDS011;5938;47.098;15.474;2023-04-01T04:17:58;5.00;;;3.40;;
11761;SDS011;5938;47.098;15.474;2023-04-01T04:22:03;7.20;;;6.37;;
11761;SDS011;5938;47.098;15.474;2023-04-01T04:26:08;8.07;;;6.23;;
11761;SDS011;5938;47.098;15.474;2023-04-01T04:30:13;4.80;;;4.20;;
11761;SDS011;5938;47.098;15.474;2023-04-01T04:34:17;5.57;;;5.07;;
11761;SDS011;5938;47.098;15.474;2023-04-01T04:38:22;8.13;;;5.57;;
11761;SDS011;5938;47.098;15.474;2023-04-01T04:42:25;4.73;;;4.33;;
11761;SDS011;5938;47.098;15.474;2023-04-01T04:46:29;5.90;;;5.33;;
11761;SDS011;5938;47.098;15.474;2023-04-01T04:50:33;5.80;;;5.20;;
11761;SDS011;5938;47.098;15.474;2023-04-01T04:54:38;7.70;;;6.10;;
11761;SDS011;5938;47.098;15.474;2023-04-01T04:58:41;5.83;;;4.90;;
11761;SDS011;5938;47.098;15.474;2023-04-01T05:02:44;6.60;;;5.50;;
11761;SDS011;5938;47.098;15.474;2023-04-01T05:06:49;7.03;;;6.03;;
11761;SDS011;5938;47.098;15.474;2023-04-01T05:10:54;7.63;;;5.97;;
11761;SDS011;5938;47.098;15.474;2023-04-01T05:14:58;6.33;;;5.73;;
11761;SDS011;5938;47.098;15.474;2023-04-01T05:19:01;6.57;;;5.30;;
11761;SDS011;5938;47.098;15.474;2023-04-01T05:23:04;5.77;;;5.17;;
11761;SDS011;5938;47.098;15.474;2023-04-01T05:27:09;8.90;;;4.50;;
11761;SDS011;5938;47.098;15.474;2023-04-01T05:31:12;5.30;;;4.10;;
11761;SDS011;5938;47.098;15.474;2023-04-01T05:35:16;6.50;;;4.50;;
11761;SDS011;5938;47.098;15.474;2023-04-01T05:39:19;4.57;;;4.17;;
11761;SDS011;5938;47.098;15.474;2023-04-01T05:43:25;5.93;;;4.47;;
11761;SDS011;5938;47.098;15.474;2023-04-01T05:47:28;4.87;;;4.47;;
11761;SDS011;5938;47.098;15.474;2023-04-01T05:51:34;4.93;;;4.13;;
11761;SDS011;5938;47.098;15.474;2023-04-01T05:55:37;5.40;;;4.47;;
11761;SDS011;5938;47.098;15.474;2023-04-01T05:59:42;5.87;;;5.30;;
11761;SDS011;5938;47.098;15.474;2023-04-01T06:03:46;5.10;;;4.20;;
11761;SDS011;5938;47.098;15.474;2023-04-01T06:07:50;6.37;;;4.97;;
11761;SDS011;5938;47.098;15.474;2023-04-01T06:12:01;4.83;;;4.43;;
11761;SDS011;5938;47.098;15.474;2023-04-01T06:16:25;5.73;;;5.03;;
11761;SDS011;5938;47.098;15.474;2023-04-01T06:20:42;5.70;;;5.03;;
11761;SDS011;5938;47.098;15.474;2023-04-01T06:24:59;6.20;;;5.60;;
11761;SDS011;5938;47.098;15.474;2023-04-01T06:29:22;4.90;;;3.63;;
11761;SDS011;5938;47.098;15.474;2023-04-01T06:33:49;4.07;;;3.77;;
11761;SDS011;5938;47.098;15.474;2023-04-01T06:38:16;13.17;;;10.07;;
11761;SDS011;5938;47.098;15.474;2023-04-01T06:42:47;8.60;;;6.87;;
11761;SDS011;5938;47.098;15.474;2023-04-01T06:47:04;3.30;;;2.60;;
11761;SDS011;5938;47.098;15.474;2023-04-01T06:51:26;7.97;;;5.70;;
11761;SDS011;5938;47.098;15.474;2023-04-01T06:55:40;2.90;;;2.13;;
11761;SDS011;5938;47.098;15.474;2023-04-01T06:59:47;3.97;;;1.83;;
11761;SDS011;5938;47.098;15.474;2023-04-01T07:03:52;3.00;;;2.33;;
11761;SDS011;5938;47.098;15.474;2023-04-01T07:08:01;2.40;;;2.20;;
11761;SDS011;5938;47.098;15.474;2023-04-01T07:12:10;3.30;;;2.47;;
11761;SDS011;5938;47.098;15.474;2023-04-01T07:16:24;2.30;;;2.10;;
11761;SDS011;5938;47.098;15.474;2023-04-01T07:20:32;2.10;;;1.90;;
11761;SDS011;5938;47.098;15.474;2023-04-01T07:24:41;2.13;;;1.77;;
11761;SDS011;5938;47.098;15.474;2023-04-01T07:28:47;5.10;;;2.73;;
11761;SDS011;5938;47.098;15.474;2023-04-01T07:32:52;2.07;;;1.90;;
11761;SDS011;5938;47.098;15.474;2023-04-01T07:37:00;3.87;;;2.40;;
11761;SDS011;5938;47.098;15.474;2023-04-01T07:41:12;1.57;;;1.47;;
11761;SDS011;5938;47.098;15.474;2023-04-01T07:45:27;3.63;;;2.10;;
11761;SDS011;5938;47.098;15.474;2023-04-01T07:49:39;2.87;;;1.57;;
11761;SDS011;5938;47.098;15.474;2023-04-01T07:53:53;1.70;;;1.40;;
11761;SDS011;5938;47.098;15.474;2023-04-01T07:58:07;1.37;;;1.27;;
11761;SDS011;5938;47.098;15.474;2023-04-01T08:02:20;0.93;;;0.70;;
11761;SDS011;5938;47.098;15.474;2023-04-01T08:06:32;3.60;;;0.77;;
11761;SDS011;5938;47.098;15.474;2023-04-01T08:10:44;1.10;;;0.70;;
11761;SDS011;5938;47.098;15.474;2023-04-01T08:14:58;2.37;;;1.20;;
11761;SDS011;5938;47.098;15.474;2023-04-01T08:19:14;1.80;;;0.87;;
11761;SDS011;5938;47.098;15.474;2023-04-01T08:23:26;1.23;;;1.00;;
11761;SDS011;5938;47.098;15.474;2023-04-01T08:27:34;1.10;;;0.90;;
11761;SDS011;5938;47.098;15.474;2023-04-01T08:31:43;1.10;;;0.90;;
11761;SDS011;5938;47.098;15.474;2023-04-01T08:35:54;1.33;;;1.00;;
11761;SDS011;5938;47.098;15.474;2023-04-01T08:40:01;1.30;;;0.80;;
11761;SDS011;5938;47.098;15.474;2023-04-01T08:44:24;1.77;;;1.07;;
11761;SDS011;5938;47.098;15.474;2023-04-01T08:48:52;1.17;;;0.97;;
11761;SDS011;5938;47.098;15.474;2023-04-01T08:53:10;1.00;;;0.90;;
11761;SDS011;5938;47.098;15.474;2023-04-01T08:57:21;1.60;;;1.10;;
11761;SDS011;5938;47.098;15.474;2023-04-01T09:01:45;1.00;;;1.00;;
11761;SDS011;5938;47.098;15.474;2023-04-01T09:10:37;1.93;;;1.50;;
11761;SDS011;5938;47.098;15.474;2023-04-01T09:19:45;2.70;;;2.13;;
11761;SDS011;5938;47.098;15.474;2023-04-01T09:24:16;1.85;;;1.60;;
11761;SDS011;5938;47.098;15.474;2023-04-01T09:28:37;1.83;;;1.60;;
11761;SDS011;5938;47.098;15.474;2023-04-01T09:32:59;11.63;;;2.30;;
11761;SDS011;5938;47.098;15.474;2023-04-01T09:37:27;2.70;;;1.63;;
11761;SDS011;5938;47.098;15.474;2023-04-01T09:41:39;1.33;;;1.23;;
11761;SDS011;5938;47.098;15.474;2023-04-01T09:50:30;1.67;;;1.40;;
11761;SDS011;5938;47.098;15.474;2023-04-01T09:54:47;1.40;;;1.10;;
11761;SDS011;5938;47.098;15.474;2023-04-01T09:59:16;3.53;;;1.77;;
11761;SDS011;5938;47.098;15.474;2023-04-01T10:18:03;2.90;;;1.80;;
11761;SDS011;5938;47.098;15.474;2023-04-01T10:27:16;1.77;;;1.67;;
11761;SDS011;5938;47.098;15.474;2023-04-01T10:32:09;3.70;;;2.10;;
11761;SDS011;5938;47.098;15.474;2023-04-01T10:41:10;1.97;;;1.00;;
11761;SDS011;5938;47.098;15.474;2023-04-01T10:45:46;0.60;;;0.53;;
11761;SDS011;5938;47.098;15.474;2023-04-01T10:50:22;0.40;;;0.40;;
11761;SDS011;5938;47.098;15.474;2023-04-01T10:54:47;0.37;;;0.30;;
11761;SDS011;5938;47.098;15.474;2023-04-01T10:59:00;1.00;;;0.63;;
11761;SDS011;5938;47.098;15.474;2023-04-01T11:12:58;0.83;;;0.70;;
11761;SDS011;5938;47.098;15.474;2023-04-01T11:22:19;1.50;;;1.00;;
11761;SDS011;5938;47.098;15.474;2023-04-01T11:26:38;1.33;;;0.43;;
11761;SDS011;5938;47.098;15.474;2023-04-01T11:30:58;0.97;;;0.47;;
11761;SDS011;5938;47.098;15.474;2023-04-01T11:39:56;0.30;;;0.30;;
11761;SDS011;5938;47.098;15.474;2023-04-01T11:44:11;0.40;;;0.30;;
11761;SDS011;5938;47.098;15.474;2023-04-01T11:48:25;1.40;;;0.93;;
11761;SDS011;5938;47.098;15.474;2023-04-01T11:52:44;1.60;;;1.50;;
11761;SDS011;5938;47.098;15.474;2023-04-01T11:57:09;1.73;;;0.60;;
11761;SDS011;5938;47.098;15.474;2023-04-01T12:01:46;0.83;;;0.60;;
11761;SDS011;5938;47.098;15.474;2023-04-01T12:06:00;1.10;;;0.93;;
11761;SDS011;5938;47.098;15.474;2023-04-01T12:10:12;0.50;;;0.50;;
11761;SDS011;5938;47.098;15.474;2023-04-01T12:14:22;0.83;;;0.60;;
11761;SDS011;5938;47.098;15.474;2023-04-01T12:18:38;0.60;;;0.40;;
11761;SDS011;5938;47.098;15.474;2023-04-01T12:22:48;0.60;;;0.50;;
11761;SDS011;5938;47.098;15.474;2023-04-01T12:31:30;0.50;;;0.40;;
11761;SDS011;5938;47.098;15.474;2023-04-01T12:35:44;0.80;;;0.33;;
11761;SDS011;5938;47.098;15.474;2023-04-01T12:40:01;1.10;;;0.43;;
11761;SDS011;5938;47.098;15.474;2023-04-01T12:49:00;2.30;;;0.60;;
11761;SDS011;5938;47.098;15.474;2023-04-01T12:53:23;0.80;;;0.63;;
11761;SDS011;5938;47.098;15.474;2023-04-01T12:57:46;0.93;;;0.40;;
11761;SDS011;5938;47.098;15.474;2023-04-01T13:02:11;0.80;;;0.40;;
11761;SDS011;5938;47.098;15.474;2023-04-01T13:06:28;0.40;;;0.40;;
11761;SDS011;5938;47.098;15.474;2023-04-01T13:10:46;0.40;;;0.40;;
11761;SDS011;5938;47.098;15.474;2023-04-01T13:15:07;0.50;;;0.50;;
11761;SDS011;5938;47.098;15.474;2023-04-01T13:19:19;0.60;;;0.60;;
11761;SDS011;5938;47.098;15.474;2023-04-01T13:23:32;0.37;;;0.30;;
11761;SDS011;5938;47.098;15.474;2023-04-01T13:27:45;0.40;;;0.40;;
11761;SDS011;5938;47.098;15.474;2023-04-01T13:31:58;0.60;;;0.40;;
11761;SDS011;5938;47.098;15.474;2023-04-01T13:36:16;0.40;;;0.30;;
11761;SDS011;5938;47.098;15.474;2023-04-01T13:40:40;0.40;;;0.40;;
11761;SDS011;5938;47.098;15.474;2023-04-01T13:45:08;0.60;;;0.50;;
11761;SDS011;5938;47.098;15.474;2023-04-01T13:49:28;0.70;;;0.43;;
11761;SDS011;5938;47.098;15.474;2023-04-01T13:58:38;0.60;;;0.40;;
11761;SDS011;5938;47.098;15.474;2023-04-01T14:03:09;0.80;;;0.60;;
11761;SDS011;5938;47.098;15.474;2023-04-01T14:07:35;0.50;;;0.50;;
11761;SDS011;5938;47.098;15.474;2023-04-01T14:12:00;0.63;;;0.50;;
11761;SDS011;5938;47.098;15.474;2023-04-01T14:16:21;0.53;;;0.40;;
11761;SDS011;5938;47.098;15.474;2023-04-01T14:20:42;0.67;;;0.53;;
11761;SDS011;5938;47.098;15.474;2023-04-01T14:29:27;0.50;;;0.47;;
11761;SDS011;5938;47.098;15.474;2023-04-01T14:33:41;0.60;;;0.50;;
11761;SDS011;5938;47.098;15.474;2023-04-01T14:38:02;0.93;;;0.60;;
11761;SDS011;5938;47.098;15.474;2023-04-01T14:42:30;1.30;;;0.40;;
11761;SDS011;5938;47.098;15.474;2023-04-01T14:47:11;0.53;;;0.37;;
11761;SDS011;5938;47.098;15.474;2023-04-01T14:51:32;0.50;;;0.40;;
11761;SDS011;5938;47.098;15.474;2023-04-01T14:55:44;1.00;;;0.50;;
11761;SDS011;5938;47.098;15.474;2023-04-01T15:00:00;0.80;;;0.80;;
11761;SDS011;5938;47.098;15.474;2023-04-01T15:04:17;0.40;;;0.40;;
11761;SDS011;5938;47.098;15.474;2023-04-01T15:08:34;0.60;;;0.60;;
11761;SDS011;5938;47.098;15.474;2023-04-01T15:12:49;0.77;;;0.60;;
11761;SDS011;5938;47.098;15.474;2023-04-01T15:17:04;0.50;;;0.30;;
11761;SDS011;5938;47.098;15.474;2023-04-01T15:21:23;0.50;;;0.40;;
11761;SDS011;5938;47.098;15.474;2023-04-01T15:25:51;1.70;;;0.77;;
11761;SDS011;5938;47.098;15.474;2023-04-01T15:30:22;0.40;;;0.40;;
11761;SDS011;5938;47.098;15.474;2023-04-01T15:34:40;0.50;;;0.40;;
11761;SDS011;5938;47.098;15.474;2023-04-01T15:38:52;1.17;;;0.50;;
11761;SDS011;5938;47.098;15.474;2023-04-01T15:43:02;0.50;;;0.50;;
11761;SDS011;5938;47.098;15.474;2023-04-01T15:51:50;0.50;;;0.50;;
11761;SDS011;5938;47.098;15.474;2023-04-01T15:56:11;1.57;;;1.00;;
11761;SDS011;5938;47.098;15.474;2023-04-01T16:00:28;0.63;;;0.47;;
11761;SDS011;5938;47.098;15.474;2023-04-01T16:04:41;4.30;;;3.90;;
11761;SDS011;5938;47.098;15.474;2023-04-01T16:13:35;2.47;;;2.10;;
11761;SDS011;5938;47.098;15.474;2023-04-01T16:17:55;4.00;;;1.77;;
11761;SDS011;5938;47.098;15.474;2023-04-01T16:22:19;2.10;;;0.87;;
11761;SDS011;5938;47.098;15.474;2023-04-01T16:26:32;0.73;;;0.57;;
11761;SDS011;5938;47.098;15.474;2023-04-01T16:30:40;1.73;;;0.70;;
11761;SDS011;5938;47.098;15.474;2023-04-01T16:34:54;0.50;;;0.50;;
11761;SDS011;5938;47.098;15.474;2023-04-01T16:39:19;2.17;;;1.07;;
11761;SDS011;5938;47.098;15.474;2023-04-01T16:43:35;1.80;;;0.80;;
11761;SDS011;5938;47.098;15.474;2023-04-01T16:47:48;3.70;;;0.67;;
11761;SDS011;5938;47.098;15.474;2023-04-01T16:51:59;3.37;;;0.90;;
11761;SDS011;5938;47.098;15.474;2023-04-01T16:56:20;4.30;;;0.90;;
11761;SDS011;5938;47.098;15.474;2023-04-01T17:00:28;1.07;;;0.70;;
11761;SDS011;5938;47.098;15.474;2023-04-01T17:04:41;4.27;;;1.13;;
11761;SDS011;5938;47.098;15.474;2023-04-01T17:08:52;2.60;;;1.37;;
11761;SDS011;5938;47.098;15.474;2023-04-01T17:13:17;2.60;;;1.60;;
11761;SDS011;5938;47.098;15.474;2023-04-01T17:17:41;3.10;;;1.50;;
11761;SDS011;5938;47.098;15.474;2023-04-01T17:21:55;1.80;;;1.33;;
11761;SDS011;5938;47.098;15.474;2023-04-01T17:26:11;7.00;;;2.37;;
11761;SDS011;5938;47.098;15.474;2023-04-01T17:30:25;3.70;;;1.80;;
11761;SDS011;5938;47.098;15.474;2023-04-01T17:34:39;5.90;;;1.73;;
11761;SDS011;5938;47.098;15.474;2023-04-01T17:38:56;2.87;;;1.50;;
11761;SDS011;5938;47.098;15.474;2023-04-01T17:43:12;1.93;;;1.73;;
11761;SDS011;5938;47.098;15.474;2023-04-01T17:47:30;3.90;;;1.50;;
11761;SDS011;5938;47.098;15.474;2023-04-01T17:51:43;1.40;;;1.30;;
11761;SDS011;5938;47.098;15.474;2023-04-01T17:56:15;1.20;;;1.10;;
11761;SDS011;5938;47.098;15.474;2023-04-01T18:00:38;1.40;;;1.17;;
11761;SDS011;5938;47.098;15.474;2023-04-01T18:09:31;4.90;;;4.50;;
11761;SDS011;5938;47.098;15.474;2023-04-01T18:13:52;3.20;;;2.90;;
11761;SDS011;5938;47.098;15.474;2023-04-01T18:18:42;3.80;;;3.20;;
11761;SDS011;5938;47.098;15.474;2023-04-01T18:22:57;1.33;;;1.23;;
11761;SDS011;5938;47.098;15.474;2023-04-01T18:27:14;8.13;;;3.87;;
11761;SDS011;5938;47.098;15.474;2023-04-01T18:31:22;16.73;;;10.20;;
11761;SDS011;5938;47.098;15.474;2023-04-01T18:35:33;28.03;;;16.60;;
11761;SDS011;5938;47.098;15.474;2023-04-01T18:39:51;26.30;;;17.23;;
11761;SDS011;5938;47.098;15.474;2023-04-01T18:44:28;2.30;;;2.10;;
11761;SDS011;5938;47.098;15.474;2023-04-01T18:48:41;4.80;;;3.20;;
11761;SDS011;5938;47.098;15.474;2023-04-01T18:52:56;3.10;;;2.60;;
11761;SDS011;5938;47.098;15.474;2023-04-01T18:57:12;4.63;;;3.10;;
11761;SDS011;5938;47.098;15.474;2023-04-01T19:01:23;3.73;;;3.17;;
11761;SDS011;5938;47.098;15.474;2023-04-01T19:05:36;4.00;;;2.60;;
11761;SDS011;5938;47.098;15.474;2023-04-01T19:09:44;4.67;;;3.23;;
11761;SDS011;5938;47.098;15.474;2023-04-01T19:13:53;6.33;;;2.87;;
11761;SDS011;5938;47.098;15.474;2023-04-01T19:22:40;7.97;;;6.03;;
11761;SDS011;5938;47.098;15.474;2023-04-01T19:26:58;5.13;;;3.50;;
11761;SDS011;5938;47.098;15.474;2023-04-01T19:31:13;4.63;;;4.07;;
11761;SDS011;5938;47.098;15.474;2023-04-01T19:35:35;4.77;;;3.63;;
11761;SDS011;5938;47.098;15.474;2023-04-01T19:39:48;3.13;;;2.83;;
11761;SDS011;5938;47.098;15.474;2023-04-01T19:43:59;2.40;;;2.20;;
11761;SDS011;5938;47.098;15.474;2023-04-01T19:48:18;2.20;;;1.70;;
11761;SDS011;5938;47.098;15.474;2023-04-01T19:52:46;2.50;;;2.30;;
11761;SDS011;5938;47.098;15.474;2023-04-01T19:56:54;2.60;;;2.40;;
11761;SDS011;5938;47.098;15.474;2023-04-01T20:01:04;3.13;;;2.60;;
11761;SDS011;5938;47.098;15.474;2023-04-01T20:05:22;7.30;;;2.10;;
11761;SDS011;5938;47.098;15.474;2023-04-01T20:09:45;2.50;;;1.33;;
11761;SDS011;5938;47.098;15.474;2023-04-01T20:14:01;2.30;;;1.80;;
11761;SDS011;5938;47.098;15.474;2023-04-01T20:18:13;7.37;;;3.30;;
11761;SDS011;5938;47.098;15.474;2023-04-01T20:22:28;2.63;;;2.20;;
11761;SDS011;5938;47.098;15.474;2023-04-01T20:26:40;2.40;;;1.93;;
11761;SDS011;5938;47.098;15.474;2023-04-01T20:30:53;3.43;;;2.83;;
11761;SDS011;5938;47.098;15.474;2023-04-01T20:35:13;3.40;;;2.10;;
11761;SDS011;5938;47.098;15.474;2023-04-01T20:44:27;4.03;;;2.70;;
11761;SDS011;5938;47.098;15.474;2023-04-01T20:48:42;9.70;;;3.90;;
11761;SDS011;5938;47.098;15.474;2023-04-01T20:53:20;4.60;;;2.90;;
11761;SDS011;5938;47.098;15.474;2023-04-01T20:57:31;15.77;;;7.17;;
11761;SDS011;5938;47.098;15.474;2023-04-01T21:01:44;6.47;;;4.70;;
11761;SDS011;5938;47.098;15.474;2023-04-01T21:10:37;4.83;;;3.30;;
11761;SDS011;5938;47.098;15.474;2023-04-01T21:14:52;3.50;;;3.20;;
11761;SDS011;5938;47.098;15.474;2023-04-01T21:19:21;6.10;;;3.50;;
11761;SDS011;5938;47.098;15.474;2023-04-01T21:23:39;6.10;;;2.63;;
11761;SDS011;5938;47.098;15.474;2023-04-01T21:28:06;2.30;;;2.00;;
11761;SDS011;5938;47.098;15.474;2023-04-01T21:32:34;2.40;;;2.20;;
11761;SDS011;5938;47.098;15.474;2023-04-01T21:36:55;2.60;;;1.40;;
11761;SDS011;5938;47.098;15.474;2023-04-01T21:41:11;2.20;;;1.83;;
11761;SDS011;5938;47.098;15.474;2023-04-01T21:45:39;1.93;;;1.50;;
11761;SDS011;5938;47.098;15.474;2023-04-01T21:49:58;1.50;;;1.40;;
11761;SDS011;5938;47.098;15.474;2023-04-01T21:54:28;3.23;;;1.57;;
11761;SDS011;5938;47.098;15.474;2023-04-01T21:58:51;1.57;;;1.47;;
11761;SDS011;5938;47.098;15.474;2023-04-01T22:03:30;1.90;;;1.40;;
11761;SDS011;5938;47.098;15.474;2023-04-01T22:07:58;1.80;;;1.47;;
11761;SDS011;5938;47.098;15.474;2023-04-01T22:12:09;1.43;;;1.33;;
11761;SDS011;5938;47.098;15.474;2023-04-01T22:16:20;1.80;;;1.07;;
11761;SDS011;5938;47.098;15.474;2023-04-01T22:20:30;2.57;;;1.00;;
11761;SDS011;5938;47.098;15.474;2023-04-01T22:24:41;1.47;;;1.00;;
11761;SDS011;5938;47.098;15.474;2023-04-01T22:28:56;1.40;;;0.80;;
11761;SDS011;5938;47.098;15.474;2023-04-01T22:33:09;2.33;;;1.00;;
11761;SDS011;5938;47.098;15.474;2023-04-01T22:37:17;4.87;;;2.90;;
11761;SDS011;5938;47.098;15.474;2023-04-01T22:41:33;3.00;;;2.53;;
11761;SDS011;5938;47.098;15.474;2023-04-01T22:45:58;2.70;;;1.50;;
11761;SDS011;5938;47.098;15.474;2023-04-01T22:50:32;1.30;;;1.20;;
11761;SDS011;5938;47.098;15.474;2023-04-01T22:54:39;1.47;;;1.37;;
11761;SDS011;5938;47.098;15.474;2023-04-01T22:58:47;2.37;;;1.30;;
11761;SDS011;5938;47.098;15.474;2023-04-01T23:03:06;1.00;;;0.90;;
11761;SDS011;5938;47.098;15.474;2023-04-01T23:07:23;1.40;;;1.03;;
11761;SDS011;5938;47.098;15.474;2023-04-01T23:11:37;1.40;;;1.30;;
11761;SDS011;5938;47.098;15.474;2023-04-01T23:15:47;2.30;;;1.40;;
11761;SDS011;5938;47.098;15.474;2023-04-01T23:19:55;2.47;;;1.13;;
11761;SDS011;5938;47.098;15.474;2023-04-01T23:24:09;1.97;;;1.30;;
11761;SDS011;5938;47.098;15.474;2023-04-01T23:28:23;1.10;;;1.00;;
11761;SDS011;5938;47.098;15.474;2023-04-01T23:32:35;1.47;;;1.10;;
11761;SDS011;5938;47.098;15.474;2023-04-01T23:36:41;1.90;;;1.67;;
11761;SDS011;5938;47.098;15.474;2023-04-01T23:40:46;4.57;;;2.47;;
11761;SDS011;5938;47.098;15.474;2023-04-01T23:44:53;2.47;;;1.67;;
11761;SDS011;5938;47.098;15.474;2023-04-01T23:48:59;5.33;;;1.70;;
11761;SDS011;5938;47.098;15.474;2023-04-01T23:53:08;10.27;;;4.60;;
11761;SDS011;5938;47.098;15.474;2023-04-01T23:57:21;2.47;;;1.70;;
